createdAt,value
2022-11-03T00:03:34.853Z,62.64
2022-11-03T00:09:08.628Z,62.42
2022-11-03T00:14:39.972Z,62.57
2022-11-03T00:20:11.490Z,62.26
2022-11-03T00:25:42.584Z,62.62
2022-11-03T00:31:19.547Z,62.77
2022-11-03T00:36:51.375Z,62.68
2022-11-03T00:42:22.591Z,62.75
2022-11-03T00:48:15.233Z,62.30
2022-11-03T00:53:47.595Z,62.81
2022-11-03T00:59:18.533Z,62.62
2022-11-03T01:05:22.167Z,63.06
2022-11-03T01:11:12.231Z,62.63
2022-11-03T01:16:43.499Z,62.40
2022-11-03T01:22:15.484Z,62.68
2022-11-03T01:27:46.875Z,63.38
2022-11-03T01:33:18.602Z,63.00
2022-11-03T01:38:49.718Z,62.39
2022-11-03T01:44:24.883Z,62.31
2022-11-03T01:50:04.786Z,62.62
2022-11-03T01:55:40.195Z,62.78
2022-11-03T02:01:11.746Z,62.88
2022-11-03T02:06:43.300Z,62.02
2022-11-03T02:12:14.989Z,62.56
2022-11-03T02:17:47.902Z,62.58
2022-11-03T02:23:42.216Z,63.13
2022-11-03T02:29:13.171Z,62.37
2022-11-03T02:34:54.954Z,62.79
2022-11-03T02:40:31.637Z,62.68
2022-11-03T02:46:05.201Z,62.00
2022-11-03T02:51:36.148Z,62.54
2022-11-03T02:57:17.039Z,62.50
2022-11-03T03:02:54.191Z,62.46
2022-11-03T03:08:26.458Z,62.32
2022-11-03T03:13:57.792Z,62.84
2022-11-03T03:19:34.283Z,63.14
2022-11-03T03:25:21.963Z,62.54
2022-11-03T03:30:55.933Z,63.38
2022-11-03T03:36:27.280Z,63.16
2022-11-03T03:41:59.641Z,63.10
2022-11-03T03:47:32.650Z,63.04
2022-11-03T03:53:07.026Z,63.75
2022-11-03T03:58:37.868Z,63.60
2022-11-03T04:04:08.872Z,63.57
2022-11-03T04:09:40.191Z,63.70
2022-11-03T04:15:31.716Z,63.31
2022-11-03T04:21:22.024Z,63.32
2022-11-03T04:26:53.582Z,63.37
2022-11-03T04:32:25.271Z,63.89
2022-11-03T04:38:16.721Z,63.76
2022-11-03T04:43:47.891Z,63.89
2022-11-03T04:49:23.569Z,64.11
2022-11-03T04:54:54.651Z,63.31
2022-11-03T05:00:25.997Z,63.87
2022-11-03T05:05:57.631Z,63.65
2022-11-03T05:11:32.713Z,63.30
2022-11-03T05:17:14.991Z,63.74
2022-11-03T05:22:46.273Z,63.65
2022-11-03T05:28:26.034Z,63.52
2022-11-03T05:33:59.637Z,63.44
2022-11-03T05:39:34.775Z,64.08
2022-11-03T05:45:21.617Z,63.98
2022-11-03T05:50:53.049Z,64.10
2022-11-03T05:56:25.178Z,63.80
2022-11-03T06:01:59.851Z,63.90
2022-11-03T06:07:32.064Z,64.05
2022-11-03T06:13:11.722Z,63.51
2022-11-03T06:18:42.897Z,63.86
2022-11-03T06:24:15.432Z,63.80
2022-11-03T06:30:02.299Z,63.93
2022-11-03T06:35:35.169Z,63.70
2022-11-03T06:41:18.130Z,64.04
2022-11-03T06:46:49.390Z,63.91
2022-11-03T06:52:26.364Z,64.16
2022-11-03T06:58:23.377Z,64.29
2022-11-03T07:03:58.529Z,63.82
2022-11-03T07:09:30.091Z,63.74
2022-11-03T07:15:01.506Z,64.17
2022-11-03T07:20:32.875Z,63.92
2022-11-03T07:26:03.795Z,63.28
2022-11-03T07:31:34.965Z,63.85
2022-11-03T07:37:08.084Z,63.67
2022-11-03T07:42:39.243Z,63.34
2022-11-03T07:48:19.374Z,63.39
2022-11-03T07:53:53.316Z,64.26
2022-11-03T07:59:28.385Z,63.95
2022-11-03T08:04:59.875Z,64.20
2022-11-03T08:10:31.049Z,63.32
2022-11-03T08:16:01.987Z,64.13
2022-11-03T08:21:33.182Z,63.65
2022-11-03T08:27:05.532Z,64.16
2022-11-03T08:32:37.399Z,63.99
2022-11-03T08:38:08.662Z,63.95
2022-11-03T08:43:40.656Z,64.66
2022-11-03T08:49:11.956Z,64.44
2022-11-03T08:54:43.439Z,64.76
2022-11-03T09:00:17.236Z,64.46
2022-11-03T09:05:48.184Z,64.96
2022-11-03T09:11:19.363Z,64.90
2022-11-03T09:16:50.558Z,64.86
2022-11-03T09:22:22.741Z,64.58
2022-11-03T09:27:53.850Z,64.88
2022-11-03T09:33:25.063Z,64.39
2022-11-03T09:38:56.867Z,64.45
2022-11-03T09:44:28.134Z,64.85
2022-11-03T09:50:00.379Z,64.59
2022-11-03T09:55:33.080Z,64.29
2022-11-03T10:01:04.571Z,64.32
2022-11-03T10:06:35.611Z,65.01
2022-11-03T10:12:09.704Z,64.49
2022-11-03T10:17:40.518Z,64.79
2022-11-03T10:23:11.792Z,64.39
2022-11-03T10:28:57.746Z,64.51
2022-11-03T10:34:36.741Z,64.29
2022-11-03T10:40:48.899Z,64.37
2022-11-03T10:46:44.672Z,64.80
2022-11-03T10:52:21.380Z,65.15
2022-11-03T10:57:55.910Z,64.76
2022-11-03T11:03:27.317Z,65.17
2022-11-03T11:09:02.628Z,65.30
2022-11-03T11:14:39.687Z,65.35
2022-11-03T11:20:29.246Z,65.53
2022-11-03T11:26:09.231Z,65.48
2022-11-03T11:31:46.503Z,65.17
2022-11-03T11:37:20.579Z,65.19
2022-11-03T11:43:04.921Z,65.59
2022-11-03T11:48:36.353Z,65.30
2022-11-03T11:54:17.951Z,65.47
2022-11-03T11:59:51.304Z,65.76
2022-11-03T12:05:30.683Z,65.99
2022-11-03T12:11:03.868Z,66.19
2022-11-03T12:16:36.917Z,66.20
2022-11-03T12:22:29.793Z,66.09
2022-11-03T12:28:02.455Z,66.01
2022-11-03T12:33:33.782Z,66.13
2022-11-03T12:39:04.715Z,66.58
2022-11-03T12:44:39.936Z,66.24
2022-11-03T12:50:13.944Z,66.55
2022-11-03T12:55:45.253Z,66.56
2022-11-03T13:01:16.913Z,66.84
2022-11-03T13:06:48.368Z,66.44
2022-11-03T13:12:31.473Z,66.35
2022-11-03T13:18:17.852Z,66.77
2022-11-03T13:23:49.421Z,66.32
2022-11-03T13:29:20.955Z,66.68
2022-11-03T13:34:51.944Z,66.76
2022-11-03T13:46:13.833Z,66.45
2022-11-03T13:51:44.944Z,66.62
2022-11-03T14:08:59.032Z,66.57
2022-11-03T14:14:30.126Z,66.57
2022-11-03T14:20:07.696Z,66.45
2022-11-03T14:25:39.296Z,66.70
2022-11-03T14:31:10.756Z,66.84
2022-11-03T14:36:42.338Z,66.96
2022-11-03T14:42:17.372Z,66.95
2022-11-03T14:47:48.688Z,67.17
2022-11-03T14:53:20.581Z,66.98
2022-11-03T14:58:52.125Z,67.01
2022-11-03T15:04:23.301Z,67.48
2022-11-03T15:09:55.111Z,67.44
2022-11-03T15:15:26.351Z,67.07
2022-11-03T15:20:57.738Z,67.31
2022-11-03T15:26:29.061Z,67.60
2022-11-03T15:32:00.308Z,67.60
2022-11-03T15:37:31.833Z,67.17
2022-11-03T15:43:03.363Z,67.18
2022-11-03T15:48:34.815Z,67.49
2022-11-03T15:54:05.840Z,67.44
2022-11-03T15:59:36.803Z,67.24
2022-11-03T16:05:09.578Z,67.21
2022-11-03T16:10:45.922Z,67.37
2022-11-03T16:16:21.133Z,67.53
2022-11-03T16:21:52.478Z,67.30
2022-11-03T16:27:23.633Z,66.99
2022-11-03T16:32:54.586Z,67.17
2022-11-03T16:38:25.631Z,67.43
2022-11-03T16:43:56.806Z,67.42
2022-11-03T16:49:28.083Z,67.02
2022-11-03T16:54:59.493Z,66.79
2022-11-03T17:00:31.298Z,67.01
2022-11-03T17:06:02.647Z,67.19
2022-11-03T17:11:36.943Z,66.63
2022-11-03T17:17:08.378Z,66.60
2022-11-03T17:22:39.395Z,66.78
2022-11-03T17:28:11.164Z,66.60
2022-11-03T17:33:42.486Z,66.32
2022-11-03T17:39:16.268Z,66.42
2022-11-03T17:44:49.909Z,66.73
2022-11-03T17:50:23.427Z,66.73
2022-11-03T17:56:27.954Z,66.82
2022-11-03T18:01:46.360Z,66.38
2022-11-03T18:07:30.208Z,66.45
2022-11-03T18:13:19.614Z,66.83
2022-11-03T18:18:51.018Z,66.52
2022-11-03T18:24:22.441Z,66.50
2022-11-03T18:29:53.384Z,66.82
2022-11-03T18:35:28.209Z,66.58
2022-11-03T18:40:59.634Z,66.08
2022-11-03T18:46:30.588Z,66.54
2022-11-03T18:52:04.816Z,66.71
2022-11-03T18:57:36.761Z,66.92
2022-11-03T19:03:17.007Z,66.53
2022-11-03T19:08:48.471Z,67.04
2022-11-03T19:14:26.521Z,67.04
2022-11-03T19:19:57.683Z,66.60
2022-11-03T19:25:29.043Z,66.14
2022-11-03T19:31:00.515Z,66.79
2022-11-03T19:36:34.397Z,66.58
2022-11-03T19:42:29.701Z,66.66
2022-11-03T19:53:54.237Z,66.18
2022-11-03T19:59:26.425Z,66.46
2022-11-03T20:04:58.127Z,66.75
2022-11-03T20:10:31.786Z,66.65
2022-11-03T20:16:14.993Z,66.48
2022-11-03T20:21:46.346Z,66.59
2022-11-03T20:27:19.505Z,66.38
2022-11-03T20:32:51.060Z,66.21
2022-11-03T20:38:23.175Z,66.82
2022-11-03T20:43:55.367Z,66.20
2022-11-03T20:49:26.696Z,66.41
2022-11-03T20:54:57.790Z,66.47
2022-11-03T21:00:28.892Z,66.38
2022-11-03T21:05:59.866Z,67.03
2022-11-03T21:11:36.946Z,66.63
2022-11-03T21:17:32.091Z,66.72
2022-11-03T21:23:09.356Z,67.00
2022-11-03T21:28:40.715Z,66.45
2022-11-03T21:34:11.719Z,66.55
2022-11-03T21:39:46.173Z,67.17
2022-11-03T21:45:18.910Z,66.75
2022-11-03T21:50:50.311Z,67.74
2022-11-03T21:56:21.357Z,67.61
2022-11-03T22:01:55.243Z,67.07
2022-11-03T22:07:26.781Z,67.04
2022-11-03T22:12:57.664Z,67.06
2022-11-03T22:18:28.789Z,66.76
2022-11-03T22:24:18.716Z,67.22
2022-11-03T22:30:08.788Z,67.17
2022-11-03T22:35:58.450Z,67.21
2022-11-03T22:41:48.783Z,66.89
2022-11-03T22:47:20.114Z,67.08
2022-11-03T22:52:51.431Z,67.28
2022-11-03T22:58:27.855Z,67.42
2022-11-03T23:04:01.970Z,67.46
2022-11-03T23:09:33.402Z,67.28
2022-11-03T23:15:23.550Z,67.50
2022-11-03T23:21:08.723Z,67.10
2022-11-03T23:26:40.138Z,67.12
2022-11-03T23:32:11.119Z,67.02
2022-11-03T23:37:42.028Z,67.80
2022-11-03T23:43:13.180Z,67.75
2022-11-03T23:48:47.714Z,67.77
2022-11-03T23:54:19.049Z,67.42
2022-11-03T23:59:49.931Z,67.88
